Cullar-Vega, Spain
Current Conditions -  °F | °C
As of 6:00 PM on Friday 21 Nov 2014 (Local Time) from LEGA Reporting Station
Overcast Overcast  
Wind Chill: 68°   Ceiling: 13000
Heat Index: 68°   Visibility: 6mi
Dew Point: 37°   Wind: 10mph
Humidity: 33%   Direction: 190°S
Pressure: 29.97"   Gusts: NA
Location:  37.15°N, 3.67°W
Report Text: LEGA 211700Z 19009KT 9999 FEW030 OVC130 20/03 Q1015
Loading
Personal Weather Stations






























Interactive Weather Map New forecast layout! Learn more

10-Day Weather Forecast

Advertisements
Track Severe Weather on mobile